createdAt,value
2022-09-12T00:04:16.645Z,101163.38
2022-09-12T00:09:18.273Z,101173.78
2022-09-12T00:14:19.940Z,101172.91
2022-09-12T00:19:21.575Z,101165.03
2022-09-12T00:24:23.409Z,101165.00
2022-09-12T00:29:25.056Z,101158.00
2022-09-12T00:34:26.718Z,101157.13
2022-09-12T00:39:28.369Z,101155.34
2022-09-12T00:44:29.820Z,101148.38
2022-09-12T00:49:52.374Z,101146.63
2022-09-12T00:55:10.627Z,101145.72
2022-09-12T01:00:15.479Z,101134.38
2022-09-12T01:05:17.271Z,101136.97
2022-09-12T01:10:19.009Z,101129.97
2022-09-12T01:15:20.640Z,101122.94
2022-09-12T01:20:38.199Z,101124.66
2022-09-12T01:26:17.382Z,101125.47
2022-09-12T01:31:54.233Z,101118.47
2022-09-12T01:37:10.770Z,101117.59
2022-09-12T01:42:20.724Z,101111.44
2022-09-12T01:47:27.004Z,101107.03
2022-09-12T01:52:39.489Z,101108.75
2022-09-12T01:57:45.579Z,101117.44
2022-09-12T02:02:51.884Z,101117.44
2022-09-12T02:07:56.969Z,101111.25
2022-09-12T02:13:11.517Z,101106.00
2022-09-12T02:18:14.519Z,101109.50
2022-09-12T02:23:27.890Z,101096.41
2022-09-12T02:28:35.185Z,101098.13
2022-09-12T02:33:44.470Z,101102.47
2022-09-12T02:38:46.826Z,101100.72
2022-09-12T02:43:48.857Z,101102.44
2022-09-12T02:48:50.568Z,101096.28
2022-09-12T02:53:52.221Z,101090.13
2022-09-12T02:58:54.238Z,101087.47
2022-09-12T03:04:05.856Z,101085.69
2022-09-12T03:09:20.220Z,101080.44
2022-09-12T03:14:49.573Z,101082.09
2022-09-12T03:19:54.128Z,101087.31
2022-09-12T03:25:19.178Z,101082.03
2022-09-12T03:30:23.201Z,101082.91
2022-09-12T03:35:24.935Z,101077.69
2022-09-12T03:40:26.571Z,101087.16
2022-09-12T03:45:28.237Z,101084.50
2022-09-12T03:50:29.938Z,101073.16
2022-09-12T03:55:31.548Z,101084.22
2022-09-12T04:00:33.299Z,101087.72
2022-09-12T04:05:35.497Z,101090.28
2022-09-12T04:10:37.109Z,101092.13
2022-09-12T04:15:38.867Z,101097.31
2022-09-12T04:20:40.471Z,101100.72
2022-09-12T04:25:42.736Z,101097.25
2022-09-12T04:30:44.407Z,101103.25
2022-09-12T04:35:46.038Z,101105.78
2022-09-12T04:40:47.721Z,101109.03
2022-09-12T04:45:49.377Z,101102.03
2022-09-12T04:50:51.005Z,101094.34
2022-09-12T04:55:52.615Z,101104.84
2022-09-12T05:00:54.295Z,101113.56
2022-09-12T05:05:56.625Z,101110.06
2022-09-12T05:11:03.606Z,101104.81
2022-09-12T05:16:05.719Z,101103.13
2022-09-12T05:21:08.179Z,101104.91
2022-09-12T05:26:12.439Z,101109.13
2022-09-12T05:31:19.024Z,101118.50
2022-09-12T05:36:29.961Z,101122.81
2022-09-12T05:41:32.911Z,101118.44
2022-09-12T05:46:39.103Z,101125.56
2022-09-12T05:51:45.104Z,101128.13
2022-09-12T05:56:46.917Z,101128.13
2022-09-12T06:01:48.664Z,101123.75
2022-09-12T06:06:51.819Z,101126.38
2022-09-12T06:11:53.552Z,101124.81
2022-09-12T06:16:55.412Z,101131.94
2022-09-12T06:21:57.123Z,101126.91
2022-09-12T06:26:58.727Z,101124.44
2022-09-12T06:32:00.468Z,101119.34
2022-09-12T06:37:03.969Z,101122.97
2022-09-12T06:42:05.714Z,101109.16
2022-09-12T06:47:12.298Z,101110.16
2022-09-12T06:52:13.949Z,101103.31
2022-09-12T06:57:15.556Z,101110.41
2022-09-12T07:02:17.185Z,101100.91
2022-09-12T07:07:18.825Z,101093.06
2022-09-12T07:12:20.471Z,101099.34
2022-09-12T07:17:22.084Z,101102.91
2022-09-12T07:22:23.696Z,101105.59
2022-09-12T07:27:25.535Z,101105.69
2022-09-12T07:32:27.475Z,101104.81
2022-09-12T07:37:32.267Z,101100.47
2022-09-12T07:42:33.919Z,101098.72
2022-09-12T07:47:35.542Z,101107.44
2022-09-12T07:52:37.185Z,101104.75
2022-09-12T07:57:38.837Z,101104.69
2022-09-12T08:02:41.167Z,101111.69
2022-09-12T08:07:42.811Z,101111.56
2022-09-12T08:12:44.430Z,101111.44
2022-09-12T08:17:46.059Z,101106.91
2022-09-12T08:22:47.797Z,101111.19
2022-09-12T08:27:49.496Z,101112.13
2022-09-12T08:32:51.273Z,101111.09
2022-09-12T08:37:52.935Z,101108.28
2022-09-12T08:43:03.051Z,101111.72
2022-09-12T08:48:04.914Z,101107.13
2022-09-12T08:53:18.057Z,101094.69
2022-09-12T08:58:23.550Z,101090.09
2022-09-12T09:04:16.053Z,101094.28
2022-09-12T09:09:36.545Z,101093.09
2022-09-12T09:15:05.201Z,101091.50
2022-09-12T09:20:30.105Z,101088.53
2022-09-12T09:25:50.742Z,101082.72
2022-09-12T09:30:52.556Z,101091.38
2022-09-12T09:36:11.470Z,101072.56
2022-09-12T09:41:17.774Z,101069.53
2022-09-12T09:46:19.457Z,101058.94
2022-09-12T09:51:26.038Z,101056.09
2022-09-12T09:56:35.526Z,101051.31
2022-09-12T10:01:38.836Z,101051.72
2022-09-12T10:06:40.759Z,101044.09
2022-09-12T10:11:45.781Z,101041.63
2022-09-12T10:16:49.717Z,101028.19
2022-09-12T10:21:52.137Z,101019.78
2022-09-12T10:26:56.937Z,101026.94
2022-09-12T10:32:04.583Z,101022.03
2022-09-12T10:37:07.812Z,101034.00
2022-09-12T10:42:14.043Z,101025.84
2022-09-12T10:47:20.640Z,101015.81
2022-09-12T10:52:23.523Z,101018.03
2022-09-12T10:58:06.745Z,101011.25
2022-09-12T11:03:28.292Z,101005.25
2022-09-12T11:08:52.081Z,100995.25
2022-09-12T11:14:25.064Z,100992.59
2022-09-12T11:19:35.546Z,100988.13
2022-09-12T11:25:01.966Z,100983.03
2022-09-12T11:30:13.791Z,100980.09
2022-09-12T11:35:17.421Z,100981.63
2022-09-12T11:40:20.416Z,100981.63
2022-09-12T11:45:51.319Z,100981.41
2022-09-12T11:50:52.965Z,100975.59
2022-09-12T11:56:10.394Z,100970.03
2022-09-12T12:01:20.981Z,100968.75
2022-09-12T12:06:33.855Z,100961.75
2022-09-12T12:11:41.391Z,100951.88
2022-09-12T12:16:43.140Z,100957.59
2022-09-12T12:21:47.858Z,100953.66
2022-09-12T12:27:07.865Z,100950.72
2022-09-12T12:32:09.308Z,100941.03
2022-09-12T12:37:22.971Z,100945.59
2022-09-12T12:42:36.706Z,100939.78
2022-09-12T12:47:38.146Z,100939.84
2022-09-12T12:52:49.179Z,100924.91
2022-09-12T12:57:51.500Z,100931.81
2022-09-12T13:03:06.094Z,100919.50
2022-09-12T13:08:10.787Z,100930.16
2022-09-12T13:13:23.715Z,100914.66
2022-09-12T13:18:46.232Z,100902.63
2022-09-12T13:24:13.918Z,100898.63
2022-09-12T13:29:19.678Z,100896.25
2022-09-12T13:34:26.141Z,100896.13
2022-09-12T13:39:28.936Z,100890.16
2022-09-12T13:44:31.039Z,100880.31
2022-09-12T13:49:35.191Z,100883.81
2022-09-12T13:54:37.909Z,100887.75
2022-09-12T13:59:40.136Z,100872.53
2022-09-12T14:05:00.491Z,100876.28
2022-09-12T14:10:03.346Z,100860.09
2022-09-12T14:15:05.509Z,100849.69
2022-09-12T14:20:09.247Z,100835.13
2022-09-12T14:25:15.096Z,100839.34
2022-09-12T14:30:32.784Z,100833.69
2022-09-12T14:35:34.399Z,100824.28
2022-09-12T14:40:50.487Z,100816.16
2022-09-12T14:46:00.247Z,100814.78
2022-09-12T14:51:02.290Z,100812.63
2022-09-12T14:56:09.146Z,100811.63
2022-09-12T15:01:10.650Z,100807.31
2022-09-12T15:06:32.396Z,100803.59
2022-09-12T15:11:34.041Z,100794.25
2022-09-12T15:16:35.648Z,100792.84
2022-09-12T15:21:37.258Z,100785.00
2022-09-12T15:26:39.053Z,100792.41
2022-09-12T15:31:40.646Z,100789.38
2022-09-12T15:36:42.249Z,100778.16
2022-09-12T15:41:43.876Z,100789.09
2022-09-12T15:46:45.710Z,100775.00
2022-09-12T15:51:47.429Z,100780.13
2022-09-12T15:56:49.608Z,100765.06
2022-09-12T16:01:51.578Z,100759.16
2022-09-12T16:06:54.574Z,100766.06
2022-09-12T16:11:56.202Z,100760.63
2022-09-12T16:16:58.298Z,100758.69
2022-09-12T16:21:59.900Z,100753.75
2022-09-12T16:27:01.622Z,100750.72
2022-09-12T16:32:03.444Z,100745.28
2022-09-12T16:37:05.585Z,100737.75
2022-09-12T16:42:07.232Z,100732.50
2022-09-12T16:47:09.001Z,100724.38
2022-09-12T16:52:10.846Z,100721.25
2022-09-12T16:57:12.492Z,100720.97
2022-09-12T17:02:14.306Z,100716.69
2022-09-12T17:07:15.963Z,100717.84
2022-09-12T17:12:17.583Z,100718.22
2022-09-12T17:17:19.222Z,100704.31
2022-09-12T17:22:20.883Z,100711.72
2022-09-12T17:27:22.496Z,100710.25
2022-09-12T17:32:24.124Z,100704.16
2022-09-12T17:37:25.778Z,100706.94
2022-09-12T17:42:28.591Z,100706.41
2022-09-12T17:47:30.225Z,100700.56
2022-09-12T17:52:34.497Z,100701.59
2022-09-12T17:57:37.100Z,100697.50
2022-09-12T18:02:45.327Z,100707.34
2022-09-12T18:07:46.972Z,100701.28
2022-09-12T18:12:48.599Z,100695.06
2022-09-12T18:17:50.267Z,100687.94
2022-09-12T18:22:51.882Z,100685.94
2022-09-12T18:27:53.568Z,100673.38
2022-09-12T18:32:55.216Z,100687.19
2022-09-12T18:38:02.033Z,100685.16
2022-09-12T18:43:03.685Z,100676.72
2022-09-12T18:48:06.485Z,100680.84
2022-09-12T18:53:09.149Z,100676.88
2022-09-12T18:58:10.804Z,100680.72
2022-09-12T19:03:12.468Z,100680.28
2022-09-12T19:08:14.086Z,100684.16
2022-09-12T19:13:17.495Z,100672.19
2022-09-12T19:18:20.182Z,100667.03
2022-09-12T19:23:21.796Z,100663.06
2022-09-12T19:28:24.449Z,100658.16
2022-09-12T19:33:26.294Z,100659.25
2022-09-12T19:38:28.266Z,100656.09
2022-09-12T19:43:30.954Z,100646.78
2022-09-12T19:48:32.620Z,100642.69
2022-09-12T19:53:36.759Z,100642.00
2022-09-12T19:58:45.480Z,100634.31
2022-09-12T20:03:47.292Z,100635.53
2022-09-12T20:08:49.028Z,100632.03
2022-09-12T20:13:50.705Z,100621.63
2022-09-12T20:18:54.102Z,100610.16
2022-09-12T20:24:10.189Z,100613.78
2022-09-12T20:29:16.389Z,100610.50
2022-09-12T20:34:20.270Z,100614.13
2022-09-12T20:39:22.427Z,100591.09
2022-09-12T20:44:24.109Z,100593.00
2022-09-12T20:49:26.246Z,100586.06
2022-09-12T20:54:27.926Z,100574.78
2022-09-12T20:59:29.681Z,100570.56
2022-09-12T21:04:31.316Z,100569.88
2022-09-12T21:09:33.922Z,100560.34
2022-09-12T21:14:35.560Z,100555.25
2022-09-12T21:19:37.222Z,100551.88
2022-09-12T21:24:38.829Z,100551.41
2022-09-12T21:29:41.017Z,100559.59
2022-09-12T21:34:42.785Z,100552.75
2022-09-12T21:39:45.165Z,100539.69
2022-09-12T21:44:46.797Z,100540.75
2022-09-12T21:49:48.427Z,100524.13
2022-09-12T21:54:50.045Z,100518.09
2022-09-12T21:59:51.690Z,100497.09
2022-09-12T22:04:53.298Z,100498.97
2022-09-12T22:09:55.215Z,100490.16
2022-09-12T22:14:57.369Z,100490.31
2022-09-12T22:19:59.169Z,100493.06
2022-09-12T22:25:00.867Z,100494.06
2022-09-12T22:30:02.507Z,100487.25
2022-09-12T22:35:04.823Z,100489.78
2022-09-12T22:40:06.777Z,100473.19
2022-09-12T22:45:08.944Z,100479.25
2022-09-12T22:50:10.565Z,100474.00
2022-09-12T22:55:12.199Z,100459.13
2022-09-12T23:00:14.829Z,100462.78
2022-09-12T23:05:16.894Z,100450.53
2022-09-12T23:10:18.521Z,100449.66
2022-09-12T23:15:20.193Z,100443.47
2022-09-12T23:20:21.805Z,100432.22
2022-09-12T23:25:24.149Z,100417.31
2022-09-12T23:30:25.841Z,100412.28
2022-09-12T23:35:27.470Z,100425.53
2022-09-12T23:40:29.093Z,100427.38
2022-09-12T23:45:30.764Z,100418.56
2022-09-12T23:50:32.440Z,100414.41
2022-09-12T23:55:34.084Z,100408.19
